Time;durP1;ratioP1;P1;durP2;ratioP2;P2;SDS_P1;SDS_P2;PMS_P1;PMS_P2;Temp;Humidity;BMP_temperature;BMP_pressure;BME280_temperature;BME280_humidity;BME280_pressure;Samples;Min_cycle;Max_cycle;Signal;HPM_P1;HPM_P2
2021/10/14 00:02:10;;;;;;;0.10;0.10;;;;;;;;;;5046150;28;20231;-72
2021/10/14 00:04:37;;;;;;;0.10;0.10;;;;;;;;;;5045904;28;20235;-72
2021/10/14 00:07:03;;;;;;;0.10;0.10;;;;;;;;;;5046130;28;20203;-70
2021/10/14 00:09:30;;;;;;;0.10;0.10;;;;;;;;;;5045976;28;20216;-71
2021/10/14 00:11:56;;;;;;;0.10;0.10;;;;;;;;;;5046071;28;20204;-71
2021/10/14 00:14:22;;;;;;;0.10;0.10;;;;;;;;;;5046156;28;20436;-71
2021/10/14 00:16:48;;;;;;;0.10;0.10;;;;;;;;;;5045580;28;20205;-70
2021/10/14 00:19:16;;;;;;;0.10;0.10;;;;;;;;;;5045845;28;20204;-65
2021/10/14 00:21:42;;;;;;;0.10;0.10;;;;;;;;;;5045926;28;20415;-65
2021/10/14 00:24:08;;;;;;;0.10;0.10;;;;;;;;;;5045322;28;20267;-65
2021/10/14 00:26:35;;;;;;;0.10;0.10;;;;;;;;;;5045772;28;20301;-63
2021/10/14 00:29:01;;;;;;;0.10;0.10;;;;;;;;;;5045435;28;20211;-64
2021/10/14 00:31:27;;;;;;;0.10;0.10;;;;;;;;;;5045389;28;20300;-65
2021/10/14 00:33:54;;;;;;;0.10;0.10;;;;;;;;;;5046135;28;20200;-65
2021/10/14 00:36:22;;;;;;;0.10;0.10;;;;;;;;;;5045594;28;20212;-63
2021/10/14 00:38:48;;;;;;;0.10;0.10;;;;;;;;;;5045580;28;20510;-64
2021/10/14 00:41:17;;;;;;;0.10;0.10;;;;;;;;;;5045383;28;20299;-65
2021/10/14 00:43:43;;;;;;;0.10;0.10;;;;;;;;;;5044695;28;20234;-64
2021/10/14 00:46:14;;;;;;;0.10;0.10;;;;;;;;;;5045389;28;20205;-64
2021/10/14 00:48:40;;;;;;;0.10;0.10;;;;;;;;;;5031879;28;20200;-64
2021/10/14 00:51:07;;;;;;;0.10;0.10;;;;;;;;;;5045440;28;20205;-64
2021/10/14 00:53:36;;;;;;;0.53;0.53;;;;;;;;;;5044889;28;20212;-64
2021/10/14 00:56:04;;;;;;;0.10;0.10;;;;;;;;;;5044918;28;20210;-65
2021/10/14 00:58:30;;;;;;;0.10;0.10;;;;;;;;;;5045234;28;20470;-64
2021/10/14 01:00:56;;;;;;;0.10;0.10;;;;;;;;;;5045219;28;20207;-64
2021/10/14 01:03:23;;;;;;;0.10;0.10;;;;;;;;;;5044572;28;20535;-64
2021/10/14 01:05:49;;;;;;;0.10;0.10;;;;;;;;;;5045094;28;20205;-64
2021/10/14 01:08:16;;;;;;;0.10;0.10;;;;;;;;;;5045101;28;20504;-64
2021/10/14 01:10:44;;;;;;;0.10;0.10;;;;;;;;;;5044546;28;20274;-65
2021/10/14 01:13:10;;;;;;;0.20;0.20;;;;;;;;;;5044979;28;20554;-65
2021/10/14 01:15:37;;;;;;;0.10;0.10;;;;;;;;;;5044591;28;20246;-65
2021/10/14 01:18:03;;;;;;;0.10;0.10;;;;;;;;;;5044602;28;20207;-64
2021/10/14 01:20:31;;;;;;;0.10;0.10;;;;;;;;;;5044785;28;20249;-69
2021/10/14 01:22:57;;;;;;;0.10;0.10;;;;;;;;;;5044353;28;20265;-71
2021/10/14 01:25:24;;;;;;;0.10;0.10;;;;;;;;;;5044410;28;20254;-70
2021/10/14 01:27:51;;;;;;;0.10;0.10;;;;;;;;;;5044329;28;20275;-72
2021/10/14 01:30:17;;;;;;;0.10;0.10;;;;;;;;;;5044581;28;20201;-72
2021/10/14 01:32:47;;;;;;;0.10;0.10;;;;;;;;;;5044226;28;20200;-73
2021/10/14 01:35:13;;;;;;;0.10;0.10;;;;;;;;;;5044188;28;20201;-73
2021/10/14 01:37:41;;;;;;;0.10;0.10;;;;;;;;;;5044248;28;20266;-73
2021/10/14 01:40:07;;;;;;;0.10;0.10;;;;;;;;;;5044386;28;20212;-73
2021/10/14 01:42:34;;;;;;;0.10;0.10;;;;;;;;;;5043933;28;20207;-72
2021/10/14 01:45:00;;;;;;;0.10;0.10;;;;;;;;;;5044283;28;20549;-74
2021/10/14 01:47:27;;;;;;;0.10;0.10;;;;;;;;;;5043978;28;20271;-73
2021/10/14 01:49:53;;;;;;;0.10;0.10;;;;;;;;;;5043892;28;20208;-73
2021/10/14 01:52:19;;;;;;;0.10;0.10;;;;;;;;;;5044229;28;20266;-72
2021/10/14 01:54:47;;;;;;;0.10;0.10;;;;;;;;;;5043286;28;20204;-73
2021/10/14 01:57:13;;;;;;;0.10;0.10;;;;;;;;;;5043901;28;20312;-74
2021/10/14 01:59:39;;;;;;;0.10;0.10;;;;;;;;;;5044067;28;20251;-74
2021/10/14 02:02:05;;;;;;;0.10;0.10;;;;;;;;;;5043589;28;20201;-73
2021/10/14 02:04:31;;;;;;;0.10;0.10;;;;;;;;;;5043885;28;20235;-74
2021/10/14 02:06:58;;;;;;;0.10;0.10;;;;;;;;;;5043486;28;20219;-74
2021/10/14 02:09:24;;;;;;;0.10;0.10;;;;;;;;;;5043596;28;20210;-74
2021/10/14 02:11:52;;;;;;;0.10;0.10;;;;;;;;;;5042607;28;20206;-73
2021/10/14 02:14:18;;;;;;;0.10;0.10;;;;;;;;;;5043487;28;20214;-73
2021/10/14 02:16:44;;;;;;;0.10;0.10;;;;;;;;;;5043743;28;20207;-73
2021/10/14 02:19:10;;;;;;;0.10;0.10;;;;;;;;;;5042058;28;20205;-74
2021/10/14 02:21:37;;;;;;;0.10;0.10;;;;;;;;;;5043317;28;20207;-72
2021/10/14 02:24:03;;;;;;;0.10;0.10;;;;;;;;;;5043435;28;20245;-73
2021/10/14 02:26:29;;;;;;;0.10;0.10;;;;;;;;;;5043612;28;20205;-73
2021/10/14 02:28:57;;;;;;;0.10;0.10;;;;;;;;;;5043545;28;20207;-73
2021/10/14 02:31:23;;;;;;;0.10;0.10;;;;;;;;;;5043039;28;20214;-72
2021/10/14 02:33:49;;;;;;;0.10;0.10;;;;;;;;;;5043497;28;20204;-73
2021/10/14 02:36:15;;;;;;;0.10;0.10;;;;;;;;;;5043256;28;20203;-73
2021/10/14 02:38:42;;;;;;;0.10;0.10;;;;;;;;;;5042990;28;20242;-73
2021/10/14 02:41:08;;;;;;;0.10;0.10;;;;;;;;;;5042785;28;20243;-73
2021/10/14 02:43:34;;;;;;;0.10;0.10;;;;;;;;;;5043303;28;20414;-72
2021/10/14 02:46:02;;;;;;;0.10;0.10;;;;;;;;;;5043163;28;20392;-74
2021/10/14 02:48:28;;;;;;;0.10;0.10;;;;;;;;;;5042830;28;20279;-72
2021/10/14 02:50:54;;;;;;;0.10;0.10;;;;;;;;;;5042839;28;20206;-73
2021/10/14 02:53:21;;;;;;;0.10;0.10;;;;;;;;;;5043067;28;20198;-74
2021/10/14 02:55:47;;;;;;;0.10;0.10;;;;;;;;;;5042816;28;20211;-73
2021/10/14 02:58:13;;;;;;;0.10;0.10;;;;;;;;;;5042915;28;20248;-72
2021/10/14 03:00:39;;;;;;;0.10;0.10;;;;;;;;;;5043087;28;20228;-72
2021/10/14 03:03:07;;;;;;;0.10;0.10;;;;;;;;;;5042637;28;20266;-72
2021/10/14 03:05:33;;;;;;;0.10;0.10;;;;;;;;;;5042593;28;20364;-73
2021/10/14 03:07:59;;;;;;;0.10;0.10;;;;;;;;;;5042899;28;20253;-73
2021/10/14 03:10:25;;;;;;;0.10;0.10;;;;;;;;;;5042481;28;20271;-74
2021/10/14 03:12:52;;;;;;;0.10;0.10;;;;;;;;;;5042920;28;20208;-73
2021/10/14 03:15:18;;;;;;;0.10;0.10;;;;;;;;;;5042834;28;20549;-72
2021/10/14 03:17:44;;;;;;;0.10;0.10;;;;;;;;;;5042589;28;20215;-73
2021/10/14 03:20:12;;;;;;;0.10;0.10;;;;;;;;;;5042851;28;20250;-74
2021/10/14 03:22:38;;;;;;;0.10;0.10;;;;;;;;;;5042765;28;20228;-72
2021/10/14 03:25:05;;;;;;;0.10;0.10;;;;;;;;;;5042693;28;20265;-74
2021/10/14 03:27:31;;;;;;;0.10;0.10;;;;;;;;;;5039451;28;20270;-73
2021/10/14 03:29:57;;;;;;;0.10;0.10;;;;;;;;;;5032454;28;20212;-73
2021/10/14 03:32:23;;;;;;;0.10;0.10;;;;;;;;;;5042289;28;20218;-73
2021/10/14 03:34:50;;;;;;;0.10;0.10;;;;;;;;;;5042811;28;20347;-73
2021/10/14 03:37:18;;;;;;;0.10;0.10;;;;;;;;;;5042350;28;20275;-72
2021/10/14 03:39:44;;;;;;;0.10;0.10;;;;;;;;;;5028560;28;20450;-73
2021/10/14 03:42:10;;;;;;;0.10;0.10;;;;;;;;;;5042616;28;20434;-73
2021/10/14 03:44:37;;;;;;;0.10;0.10;;;;;;;;;;5042455;28;20222;-74
2021/10/14 03:47:03;;;;;;;0.10;0.10;;;;;;;;;;5042638;28;20394;-73
2021/10/14 03:49:29;;;;;;;0.10;0.10;;;;;;;;;;5042461;28;20207;-72
2021/10/14 03:51:55;;;;;;;0.10;0.10;;;;;;;;;;5042503;28;20211;-73
2021/10/14 03:54:23;;;;;;;0.10;0.10;;;;;;;;;;5042408;28;20245;-72
2021/10/14 03:56:49;;;;;;;0.10;0.10;;;;;;;;;;5042578;28;20207;-72
2021/10/14 03:59:15;;;;;;;0.10;0.10;;;;;;;;;;5041715;28;20201;-73
2021/10/14 04:01:41;;;;;;;0.10;0.10;;;;;;;;;;5041826;28;20222;-74
2021/10/14 04:04:08;;;;;;;0.10;0.10;;;;;;;;;;5041904;28;20510;-72
2021/10/14 04:06:34;;;;;;;0.10;0.10;;;;;;;;;;5041855;28;20215;-74
2021/10/14 04:09:00;;;;;;;0.10;0.10;;;;;;;;;;5042574;28;20253;-75
2021/10/14 04:11:28;;;;;;;0.10;0.10;;;;;;;;;;5042020;28;20222;-73
2021/10/14 04:13:54;;;;;;;0.10;0.10;;;;;;;;;;5041966;28;20202;-74
2021/10/14 04:16:20;;;;;;;0.10;0.10;;;;;;;;;;5042390;28;20219;-73
2021/10/14 04:18:46;;;;;;;0.10;0.10;;;;;;;;;;5044936;28;20202;-74
2021/10/14 04:21:13;;;;;;;0.10;0.10;;;;;;;;;;5046058;28;20205;-74
2021/10/14 04:23:42;;;;;;;0.10;0.10;;;;;;;;;;5045774;28;20232;-75
2021/10/14 04:26:08;;;;;;;0.10;0.10;;;;;;;;;;5031812;28;20243;-74
2021/10/14 04:28:36;;;;;;;0.10;0.10;;;;;;;;;;5045944;28;20478;-74
2021/10/14 04:31:03;;;;;;;0.10;0.10;;;;;;;;;;5045820;28;20209;-74
2021/10/14 04:33:29;;;;;;;0.10;0.10;;;;;;;;;;5045892;28;20210;-73
2021/10/14 04:35:55;;;;;;;0.10;0.10;;;;;;;;;;5045563;28;20208;-74
2021/10/14 04:38:22;;;;;;;0.10;0.10;;;;;;;;;;5045596;28;20550;-73
2021/10/14 04:40:48;;;;;;;0.10;0.10;;;;;;;;;;5045514;28;20209;-74
2021/10/14 04:43:14;;;;;;;0.10;0.10;;;;;;;;;;5045500;28;20207;-73
2021/10/14 04:45:42;;;;;;;0.10;0.10;;;;;;;;;;5045156;28;20207;-74
2021/10/14 04:48:08;;;;;;;0.10;0.10;;;;;;;;;;5045290;28;20393;-74
2021/10/14 04:50:34;;;;;;;0.10;0.10;;;;;;;;;;5045307;28;20247;-74
2021/10/14 04:53:01;;;;;;;0.10;0.10;;;;;;;;;;5045305;28;20271;-74
2021/10/14 04:55:27;;;;;;;0.13;0.13;;;;;;;;;;5045018;28;20203;-74
2021/10/14 04:57:53;;;;;;;0.10;0.10;;;;;;;;;;5044860;28;20245;-74
2021/10/14 05:00:19;;;;;;;0.10;0.10;;;;;;;;;;5044672;28;20202;-73
2021/10/14 05:02:47;;;;;;;0.10;0.10;;;;;;;;;;5045184;28;20266;-74
2021/10/14 05:05:13;;;;;;;0.10;0.10;;;;;;;;;;5044909;28;20233;-73
2021/10/14 05:07:39;;;;;;;0.10;0.10;;;;;;;;;;5045045;28;20206;-73
2021/10/14 05:10:06;;;;;;;0.10;0.10;;;;;;;;;;5044665;28;20528;-74
2021/10/14 05:12:32;;;;;;;0.10;0.10;;;;;;;;;;5044593;28;20210;-72
2021/10/14 05:14:58;;;;;;;0.10;0.10;;;;;;;;;;5044599;28;20224;-73
2021/10/14 05:17:24;;;;;;;0.10;0.10;;;;;;;;;;5044867;28;20257;-73
2021/10/14 05:19:52;;;;;;;0.10;0.10;;;;;;;;;;5044805;28;20489;-74
2021/10/14 05:22:18;;;;;;;0.10;0.10;;;;;;;;;;5044618;28;20249;-73
2021/10/14 05:24:44;;;;;;;0.10;0.10;;;;;;;;;;5044280;28;20551;-73
2021/10/14 05:27:11;;;;;;;0.10;0.10;;;;;;;;;;5044689;28;20207;-74
2021/10/14 05:29:37;;;;;;;0.10;0.10;;;;;;;;;;5044731;28;20210;-74
2021/10/14 05:32:03;;;;;;;0.10;0.10;;;;;;;;;;5044541;28;20497;-75
2021/10/14 05:34:30;;;;;;;0.10;0.10;;;;;;;;;;5044450;28;20203;-75
2021/10/14 05:36:57;;;;;;;0.10;0.10;;;;;;;;;;5044101;28;20206;-75
2021/10/14 05:39:23;;;;;;;0.10;0.10;;;;;;;;;;5044319;28;20249;-73
2021/10/14 05:41:49;;;;;;;0.20;0.20;;;;;;;;;;5043768;28;20204;-73
2021/10/14 05:44:16;;;;;;;0.10;0.10;;;;;;;;;;5043682;28;20226;-73
2021/10/14 05:46:42;;;;;;;0.10;0.10;;;;;;;;;;5043854;28;20294;-74
2021/10/14 05:49:09;;;;;;;0.10;0.10;;;;;;;;;;5046099;28;20211;-73
2021/10/14 05:51:35;;;;;;;0.10;0.10;;;;;;;;;;5043383;28;20217;-74
2021/10/14 05:54:03;;;;;;;0.10;0.10;;;;;;;;;;5041302;28;20206;-73
2021/10/14 05:56:29;;;;;;;0.10;0.10;;;;;;;;;;5045683;28;20207;-73
2021/10/14 05:58:55;;;;;;;0.10;0.10;;;;;;;;;;5043836;28;21060;-72
2021/10/14 06:01:21;;;;;;;0.10;0.10;;;;;;;;;;5041024;28;20487;-73
2021/10/14 06:03:48;;;;;;;0.10;0.10;;;;;;;;;;5043270;28;20325;-73
2021/10/14 06:06:14;;;;;;;0.20;0.20;;;;;;;;;;5045961;28;20260;-73
2021/10/14 06:08:41;;;;;;;0.10;0.10;;;;;;;;;;5041114;28;20259;-73
2021/10/14 06:11:08;;;;;;;0.10;0.10;;;;;;;;;;5043392;28;20299;-73
2021/10/14 06:13:35;;;;;;;0.10;0.10;;;;;;;;;;5048614;28;20206;-74
2021/10/14 06:16:01;;;;;;;0.10;0.10;;;;;;;;;;5043677;28;20222;-72
2021/10/14 06:18:27;;;;;;;0.10;0.10;;;;;;;;;;5041626;28;20206;-73
2021/10/14 06:20:54;;;;;;;0.10;0.10;;;;;;;;;;5046201;28;20202;-73
2021/10/14 06:23:20;;;;;;;0.10;0.10;;;;;;;;;;5043914;28;20282;-74
2021/10/14 06:25:46;;;;;;;0.10;0.10;;;;;;;;;;5049096;28;20227;-72
2021/10/14 06:28:13;;;;;;;0.10;0.10;;;;;;;;;;5046532;28;20212;-73
2021/10/14 06:30:40;;;;;;;0.10;0.10;;;;;;;;;;5041940;28;20262;-73
2021/10/14 06:33:06;;;;;;;0.10;0.10;;;;;;;;;;5032642;28;20203;-74
2021/10/14 06:35:32;;;;;;;0.10;0.10;;;;;;;;;;5043411;28;20433;-72
2021/10/14 06:37:59;;;;;;;0.10;0.10;;;;;;;;;;5043091;28;20206;-74
2021/10/14 06:40:25;;;;;;;0.10;0.10;;;;;;;;;;5042963;28;20503;-74
2021/10/14 06:42:51;;;;;;;0.10;0.10;;;;;;;;;;5042797;28;20205;-74
2021/10/14 06:45:19;;;;;;;0.10;0.10;;;;;;;;;;5043142;28;20281;-73
2021/10/14 06:47:45;;;;;;;0.10;0.10;;;;;;;;;;5043201;28;20249;-74
2021/10/14 06:50:11;;;;;;;0.10;0.10;;;;;;;;;;5043181;28;20225;-72
2021/10/14 06:52:38;;;;;;;0.10;0.10;;;;;;;;;;5042948;28;20548;-72
2021/10/14 06:55:04;;;;;;;0.10;0.10;;;;;;;;;;5043228;28;20197;-74
2021/10/14 06:57:31;;;;;;;0.10;0.10;;;;;;;;;;5044407;28;20439;-72
2021/10/14 06:59:57;;;;;;;0.13;0.13;;;;;;;;;;5042710;28;20390;-74
2021/10/14 07:02:24;;;;;;;0.10;0.10;;;;;;;;;;5042693;28;20230;-73
2021/10/14 07:04:51;;;;;;;0.10;0.10;;;;;;;;;;5042903;28;20233;-74
2021/10/14 07:07:17;;;;;;;0.10;0.10;;;;;;;;;;5042555;28;20249;-73
2021/10/14 07:09:43;;;;;;;0.10;0.10;;;;;;;;;;5042584;28;20239;-73
2021/10/14 07:12:11;;;;;;;0.10;0.10;;;;;;;;;;5042831;28;20199;-73
2021/10/14 07:14:37;;;;;;;0.10;0.10;;;;;;;;;;5042329;28;20201;-73
2021/10/14 07:17:03;;;;;;;0.10;0.10;;;;;;;;;;5036470;28;20548;-73
2021/10/14 07:19:31;;;;;;;0.10;0.10;;;;;;;;;;5033985;28;20425;-73
2021/10/14 07:21:57;;;;;;;0.10;0.10;;;;;;;;;;5036231;28;20311;-73
2021/10/14 07:24:24;;;;;;;0.10;0.10;;;;;;;;;;5042307;28;20302;-72
2021/10/14 07:26:50;;;;;;;0.10;0.10;;;;;;;;;;5042693;28;20211;-73
2021/10/14 07:29:16;;;;;;;0.10;0.10;;;;;;;;;;5042781;28;20241;-73
2021/10/14 07:31:43;;;;;;;0.10;0.10;;;;;;;;;;5033424;28;20202;-74
2021/10/14 07:34:09;;;;;;;0.10;0.10;;;;;;;;;;5042463;28;20632;-73
2021/10/14 07:36:36;;;;;;;0.10;0.10;;;;;;;;;;5042525;28;20272;-73
2021/10/14 07:39:03;;;;;;;0.10;0.10;;;;;;;;;;5033630;28;20210;-73
2021/10/14 07:41:30;;;;;;;0.10;0.10;;;;;;;;;;5042503;28;20257;-73
2021/10/14 07:43:56;;;;;;;0.10;0.10;;;;;;;;;;5041972;28;20205;-71
2021/10/14 07:46:22;;;;;;;0.10;0.10;;;;;;;;;;5037831;28;20449;-71
2021/10/14 07:48:49;;;;;;;0.10;0.10;;;;;;;;;;5033475;28;20301;-74
2021/10/14 07:51:15;;;;;;;0.10;0.10;;;;;;;;;;5042290;28;20211;-72
2021/10/14 07:53:42;;;;;;;0.10;0.10;;;;;;;;;;5045431;28;20245;-75
2021/10/14 07:56:09;;;;;;;0.10;0.10;;;;;;;;;;5046383;28;20332;-73
2021/10/14 07:58:35;;;;;;;0.10;0.10;;;;;;;;;;5046150;28;20255;-72
2021/10/14 08:01:01;;;;;;;0.10;0.10;;;;;;;;;;5045976;28;20209;-74
2021/10/14 08:03:27;;;;;;;0.10;0.10;;;;;;;;;;5045732;28;20217;-71
2021/10/14 08:05:54;;;;;;;0.10;0.10;;;;;;;;;;5045920;28;20263;-73
2021/10/14 08:08:20;;;;;;;0.10;0.10;;;;;;;;;;5045983;28;20208;-73
2021/10/14 08:10:49;;;;;;;0.10;0.10;;;;;;;;;;5045488;28;20519;-72
2021/10/14 08:13:16;;;;;;;0.10;0.10;;;;;;;;;;5046569;28;20387;-74
2021/10/14 08:15:42;;;;;;;0.10;0.10;;;;;;;;;;5045459;28;20216;-73
2021/10/14 08:18:09;;;;;;;0.10;0.10;;;;;;;;;;5048525;28;20212;-72
2021/10/14 08:20:35;;;;;;;0.10;0.10;;;;;;;;;;5045963;28;20249;-72
2021/10/14 08:23:02;;;;;;;0.10;0.10;;;;;;;;;;5045730;28;20305;-72
2021/10/14 08:25:28;;;;;;;0.10;0.10;;;;;;;;;;5044170;28;20225;-70
2021/10/14 08:27:55;;;;;;;0.10;0.10;;;;;;;;;;5044979;28;20206;-71
2021/10/14 08:30:22;;;;;;;0.10;0.10;;;;;;;;;;5051151;28;20508;-72
2021/10/14 08:32:50;;;;;;;0.10;0.10;;;;;;;;;;5045233;28;20202;-73
2021/10/14 08:35:16;;;;;;;0.10;0.10;;;;;;;;;;5045390;28;20214;-72
2021/10/14 08:37:42;;;;;;;0.10;0.10;;;;;;;;;;5044988;28;20211;-73
2021/10/14 08:40:09;;;;;;;0.10;0.10;;;;;;;;;;5047975;28;20203;-72
2021/10/14 08:42:35;;;;;;;0.10;0.10;;;;;;;;;;5046642;28;20259;-73
2021/10/14 08:45:04;;;;;;;0.10;0.10;;;;;;;;;;5042246;28;20232;-72
2021/10/14 08:47:31;;;;;;;0.10;0.10;;;;;;;;;;5047862;28;20270;-73
2021/10/14 08:49:58;;;;;;;0.10;0.10;;;;;;;;;;5044326;28;20502;-73
2021/10/14 08:52:24;;;;;;;0.10;0.10;;;;;;;;;;5047914;28;20273;-74
2021/10/14 08:54:50;;;;;;;0.10;0.10;;;;;;;;;;5045485;28;20566;-75
2021/10/14 08:57:16;;;;;;;0.10;0.10;;;;;;;;;;5045074;28;20347;-74
2021/10/14 08:59:43;;;;;;;0.10;0.10;;;;;;;;;;5050624;28;20514;-71
2021/10/14 09:02:17;;;;;;;0.10;0.10;;;;;;;;;;5050617;28;20484;-74
2021/10/14 09:04:56;;;;;;;0.10;0.10;;;;;;;;;;5043652;28;20226;-74
2021/10/14 09:07:23;;;;;;;0.10;0.10;;;;;;;;;;5034688;28;20588;-74
2021/10/14 09:09:50;;;;;;;0.10;0.10;;;;;;;;;;5040980;28;20455;-74
2021/10/14 09:12:18;;;;;;;0.10;0.10;;;;;;;;;;5043934;28;20250;-72
2021/10/14 09:14:52;;;;;;;0.10;0.10;;;;;;;;;;5044328;28;20487;-72
2021/10/14 09:17:19;;;;;;;0.10;0.10;;;;;;;;;;5044488;28;20219;-73
2021/10/14 09:19:46;;;;;;;0.10;0.10;;;;;;;;;;5044165;28;20227;-74
2021/10/14 09:22:16;;;;;;;0.10;0.10;;;;;;;;;;5043910;28;20257;-73
2021/10/14 09:24:42;;;;;;;0.10;0.10;;;;;;;;;;5044116;28;20208;-74
2021/10/14 09:27:09;;;;;;;0.10;0.10;;;;;;;;;;5044285;28;20230;-72
2021/10/14 09:29:37;;;;;;;0.10;0.10;;;;;;;;;;5044278;28;20254;-75
2021/10/14 09:32:04;;;;;;;0.10;0.10;;;;;;;;;;5044709;28;20279;-73
2021/10/14 09:34:36;;;;;;;0.10;0.10;;;;;;;;;;5044618;28;20209;-73
2021/10/14 09:37:03;;;;;;;0.10;0.10;;;;;;;;;;5044692;28;20491;-75
2021/10/14 09:39:30;;;;;;;0.10;0.10;;;;;;;;;;5044580;28;20201;-74
2021/10/14 09:41:58;;;;;;;0.10;0.10;;;;;;;;;;5044138;28;20438;-71
2021/10/14 09:44:24;;;;;;;0.10;0.10;;;;;;;;;;5031998;28;20209;-73
2021/10/14 09:46:51;;;;;;;0.10;0.10;;;;;;;;;;5040192;28;20222;-72
2021/10/14 09:49:21;;;;;;;0.10;0.10;;;;;;;;;;5049036;28;20250;-74
2021/10/14 09:51:48;;;;;;;0.10;0.10;;;;;;;;;;5044203;28;20234;-71
2021/10/14 09:54:15;;;;;;;0.10;0.10;;;;;;;;;;5044067;28;20205;-74
2021/10/14 09:56:41;;;;;;;0.10;0.10;;;;;;;;;;5044276;28;20199;-75
2021/10/14 09:59:08;;;;;;;0.10;0.10;;;;;;;;;;5044251;28;20201;-74
2021/10/14 10:01:35;;;;;;;0.10;0.10;;;;;;;;;;5033784;28;20229;-72
2021/10/14 10:04:01;;;;;;;0.10;0.10;;;;;;;;;;5034949;28;20255;-72
2021/10/14 10:06:28;;;;;;;0.10;0.10;;;;;;;;;;5039155;28;20415;-73
2021/10/14 10:08:57;;;;;;;0.10;0.10;;;;;;;;;;5034842;28;20272;-73
2021/10/14 10:11:24;;;;;;;0.10;0.10;;;;;;;;;;5039332;28;20500;-71
2021/10/14 10:13:52;;;;;;;0.10;0.10;;;;;;;;;;5042596;28;20200;-72
2021/10/14 10:16:19;;;;;;;0.10;0.10;;;;;;;;;;5036476;28;20446;-64
2021/10/14 10:18:46;;;;;;;0.10;0.10;;;;;;;;;;5032730;28;20435;-71
2021/10/14 10:21:31;;;;;;;0.10;0.10;;;;;;;;;;5035541;28;20444;-71
2021/10/14 10:23:59;;;;;;;0.10;0.10;;;;;;;;;;5039105;28;20213;-72
2021/10/14 10:26:58;;;;;;;0.10;0.10;;;;;;;;;;5037599;28;20294;-72
2021/10/14 10:29:40;;;;;;;0.10;0.10;;;;;;;;;;4976952;28;20218;-72
2021/10/14 10:32:19;;;;;;;0.10;0.10;;;;;;;;;;4973618;28;20207;-69
2021/10/14 10:34:49;;;;;;;0.10;0.10;;;;;;;;;;5013767;28;20209;-71
2021/10/14 10:37:17;;;;;;;0.10;0.10;;;;;;;;;;5033602;28;20201;-72
2021/10/14 10:39:46;;;;;;;0.10;0.10;;;;;;;;;;5028942;28;20276;-73
2021/10/14 10:42:13;;;;;;;0.10;0.10;;;;;;;;;;5030219;28;20611;-71
2021/10/14 10:44:40;;;;;;;0.10;0.10;;;;;;;;;;5039625;28;20262;-74
2021/10/14 10:47:37;;;;;;;0.10;0.10;;;;;;;;;;5036928;28;20231;-72
2021/10/14 10:50:04;;;;;;;0.10;0.10;;;;;;;;;;5035953;28;20233;-72
2021/10/14 10:52:31;;;;;;;0.10;0.10;;;;;;;;;;5041113;28;20209;-71
2021/10/14 10:54:59;;;;;;;0.10;0.10;;;;;;;;;;5039069;28;20213;-68
2021/10/14 10:57:44;;;;;;;0.10;0.10;;;;;;;;;;5033583;28;20502;-70
2021/10/14 11:00:10;;;;;;;0.10;0.10;;;;;;;;;;5030341;28;20524;-69
2021/10/14 11:02:37;;;;;;;0.10;0.10;;;;;;;;;;5034399;28;20255;-68
2021/10/14 11:05:03;;;;;;;0.10;0.10;;;;;;;;;;5040128;28;20235;-69
2021/10/14 11:07:30;;;;;;;0.10;0.10;;;;;;;;;;5036311;28;20357;-69
2021/10/14 11:09:56;;;;;;;0.10;0.10;;;;;;;;;;5039703;28;20218;-72
2021/10/14 11:12:23;;;;;;;0.10;0.10;;;;;;;;;;5033586;28;20512;-72
2021/10/14 11:14:50;;;;;;;0.10;0.10;;;;;;;;;;5033496;28;20213;-74
2021/10/14 11:17:16;;;;;;;0.10;0.10;;;;;;;;;;5033058;28;20203;-72
2021/10/14 11:19:43;;;;;;;0.10;0.10;;;;;;;;;;5037751;28;20205;-72
2021/10/14 11:22:13;;;;;;;0.10;0.10;;;;;;;;;;5031589;28;20516;-72
2021/10/14 11:24:42;;;;;;;0.10;0.10;;;;;;;;;;5031529;28;20237;-73
2021/10/14 11:27:12;;;;;;;0.10;0.10;;;;;;;;;;5040064;28;20230;-72
2021/10/14 11:29:40;;;;;;;0.10;0.10;;;;;;;;;;5036629;28;20384;-71
2021/10/14 11:32:09;;;;;;;0.10;0.10;;;;;;;;;;5043049;28;20207;-72
2021/10/14 11:34:37;;;;;;;0.10;0.10;;;;;;;;;;5032726;28;20205;-71
2021/10/14 11:37:04;;;;;;;0.10;0.10;;;;;;;;;;5041525;28;20258;-71
2021/10/14 11:39:33;;;;;;;0.10;0.10;;;;;;;;;;5041613;28;20211;-70
2021/10/14 11:42:00;;;;;;;0.10;0.10;;;;;;;;;;5041064;28;20208;-73
2021/10/14 11:44:27;;;;;;;0.10;0.10;;;;;;;;;;5040076;28;20550;-73
2021/10/14 11:46:55;;;;;;;0.10;0.10;;;;;;;;;;5036179;28;20297;-71
2021/10/14 11:49:22;;;;;;;0.10;0.10;;;;;;;;;;5041616;28;20428;-73
2021/10/14 11:51:50;;;;;;;0.10;0.10;;;;;;;;;;5040478;28;20577;-68
2021/10/14 11:54:17;;;;;;;0.10;0.10;;;;;;;;;;5039112;28;20285;-74
2021/10/14 11:56:45;;;;;;;0.10;0.10;;;;;;;;;;5035842;28;20215;-74
2021/10/14 11:59:11;;;;;;;0.10;0.10;;;;;;;;;;5037825;28;20212;-73
2021/10/14 12:01:42;;;;;;;0.10;0.10;;;;;;;;;;5037512;28;20224;-73
2021/10/14 12:04:09;;;;;;;0.10;0.10;;;;;;;;;;5036206;28;20233;-73
2021/10/14 12:06:36;;;;;;;0.10;0.10;;;;;;;;;;5035356;28;20222;-73
2021/10/14 12:09:03;;;;;;;0.10;0.10;;;;;;;;;;5036807;28;20254;-73
2021/10/14 12:11:29;;;;;;;0.10;0.10;;;;;;;;;;5039343;28;20305;-73
2021/10/14 12:13:56;;;;;;;0.10;0.10;;;;;;;;;;5031588;28;20209;-72
2021/10/14 12:16:22;;;;;;;0.10;0.10;;;;;;;;;;5036673;28;20252;-71
2021/10/14 12:18:48;;;;;;;0.10;0.10;;;;;;;;;;5038737;28;20219;-71
2021/10/14 12:21:35;;;;;;;0.10;0.10;;;;;;;;;;5035160;28;20272;-73
2021/10/14 12:24:02;;;;;;;0.10;0.10;;;;;;;;;;5041395;28;20208;-73
2021/10/14 12:26:33;;;;;;;0.10;0.10;;;;;;;;;;5038494;28;20428;-75
2021/10/14 12:29:14;;;;;;;0.10;0.10;;;;;;;;;;5041018;28;20496;-74
2021/10/14 12:31:41;;;;;;;0.10;0.10;;;;;;;;;;5036222;28;20544;-74
2021/10/14 12:34:07;;;;;;;0.10;0.10;;;;;;;;;;5036404;28;20446;-74
2021/10/14 12:36:43;;;;;;;0.10;0.10;;;;;;;;;;5036864;28;20419;-73
2021/10/14 12:39:18;;;;;;;0.10;0.10;;;;;;;;;;5042521;28;20206;-72
2021/10/14 12:41:49;;;;;;;0.10;0.10;;;;;;;;;;5037750;28;20210;-70
2021/10/14 12:44:15;;;;;;;0.10;0.10;;;;;;;;;;5036956;28;20267;-71
2021/10/14 12:46:51;;;;;;;0.10;0.10;;;;;;;;;;5043028;28;20538;-72
2021/10/14 12:49:28;;;;;;;0.10;0.10;;;;;;;;;;5037370;28;20199;-70
2021/10/14 12:51:55;;;;;;;0.10;0.10;;;;;;;;;;5037416;28;20206;-73
2021/10/14 12:54:22;;;;;;;0.10;0.10;;;;;;;;;;5035586;28;20243;-73
2021/10/14 12:56:49;;;;;;;0.10;0.10;;;;;;;;;;5039636;28;20215;-73
2021/10/14 12:59:16;;;;;;;0.10;0.10;;;;;;;;;;5032425;28;20244;-73
2021/10/14 13:01:45;;;;;;;0.10;0.10;;;;;;;;;;5031501;28;20395;-72
2021/10/14 13:04:11;;;;;;;0.00;0.00;;;;;;;;;;5041440;28;20403;-71
2021/10/14 13:06:37;;;;;;;0.10;0.10;;;;;;;;;;5037337;28;20264;-74
2021/10/14 13:09:06;;;;;;;0.10;0.10;;;;;;;;;;5040384;28;20548;-74
2021/10/14 13:11:33;;;;;;;0.10;0.10;;;;;;;;;;5040231;28;20217;-72
2021/10/14 13:14:00;;;;;;;0.10;0.10;;;;;;;;;;5035053;28;20258;-73
2021/10/14 13:16:26;;;;;;;0.10;0.10;;;;;;;;;;5036390;28;20502;-71
2021/10/14 13:18:52;;;;;;;0.10;0.10;;;;;;;;;;5034558;28;20209;-70
2021/10/14 13:21:19;;;;;;;0.10;0.10;;;;;;;;;;5034482;28;20207;-72
2021/10/14 13:23:45;;;;;;;0.10;0.10;;;;;;;;;;5039333;28;20254;-72
2021/10/14 13:26:12;;;;;;;0.10;0.10;;;;;;;;;;5040954;28;20334;-74
2021/10/14 13:28:39;;;;;;;0.10;0.10;;;;;;;;;;5035582;28;20248;-74
2021/10/14 13:31:06;;;;;;;0.10;0.10;;;;;;;;;;5032404;28;20271;-72
2021/10/14 13:33:33;;;;;;;0.10;0.10;;;;;;;;;;5044754;28;20205;-72
2021/10/14 13:36:04;;;;;;;0.10;0.10;;;;;;;;;;5037933;28;20205;-72
2021/10/14 13:38:30;;;;;;;0.10;0.10;;;;;;;;;;5039161;28;20249;-71
2021/10/14 13:40:59;;;;;;;0.10;0.10;;;;;;;;;;5039994;28;20214;-71
2021/10/14 13:43:29;;;;;;;0.10;0.10;;;;;;;;;;5043954;28;20216;-72
2021/10/14 13:45:56;;;;;;;0.10;0.10;;;;;;;;;;5044103;28;20214;-72
2021/10/14 13:48:22;;;;;;;0.10;0.10;;;;;;;;;;5043727;28;20235;-74
2021/10/14 13:50:49;;;;;;;0.10;0.10;;;;;;;;;;5042531;28;20208;-73
2021/10/14 13:53:15;;;;;;;0.10;0.10;;;;;;;;;;5043499;28;20231;-72
2021/10/14 13:55:42;;;;;;;0.10;0.10;;;;;;;;;;5043610;28;20239;-73
2021/10/14 13:58:09;;;;;;;0.10;0.10;;;;;;;;;;5043115;28;20372;-72
2021/10/14 14:00:37;;;;;;;0.10;0.10;;;;;;;;;;5043597;28;20272;-74
2021/10/14 14:03:04;;;;;;;0.10;0.10;;;;;;;;;;5043373;28;20250;-75
2021/10/14 14:05:30;;;;;;;0.10;0.10;;;;;;;;;;5047451;28;20603;-74
2021/10/14 14:07:56;;;;;;;0.10;0.10;;;;;;;;;;5042045;28;20243;-71
2021/10/14 14:10:23;;;;;;;0.10;0.10;;;;;;;;;;5046186;28;20215;-73
2021/10/14 14:12:49;;;;;;;0.10;0.10;;;;;;;;;;5046647;28;20265;-75
2021/10/14 14:15:15;;;;;;;0.10;0.10;;;;;;;;;;5044300;28;20557;-74
2021/10/14 14:17:43;;;;;;;0.10;0.10;;;;;;;;;;5043178;28;20202;-75
2021/10/14 14:20:10;;;;;;;0.10;0.10;;;;;;;;;;5039546;28;20212;-74
2021/10/14 14:22:36;;;;;;;0.10;0.10;;;;;;;;;;5040623;28;20211;-73
2021/10/14 14:25:02;;;;;;;0.10;0.10;;;;;;;;;;5039416;28;20251;-74
2021/10/14 14:27:29;;;;;;;0.30;0.30;;;;;;;;;;5041854;28;20255;-74
2021/10/14 14:29:58;;;;;;;0.10;0.10;;;;;;;;;;5043277;28;20207;-74
2021/10/14 14:32:24;;;;;;;0.10;0.10;;;;;;;;;;5043098;28;20210;-74
2021/10/14 14:34:51;;;;;;;0.10;0.10;;;;;;;;;;5043655;28;20419;-76
2021/10/14 14:37:18;;;;;;;0.10;0.10;;;;;;;;;;5031049;28;20207;-75
2021/10/14 14:39:44;;;;;;;0.10;0.10;;;;;;;;;;5042865;28;20202;-75
2021/10/14 14:42:11;;;;;;;0.10;0.10;;;;;;;;;;5043141;28;20242;-75
2021/10/14 14:44:37;;;;;;;0.10;0.10;;;;;;;;;;5044784;28;20203;-75